Time;durP1;ratioP1;P1;durP2;ratioP2;P2;SDS_P1;SDS_P2;PMS_P1;PMS_P2;Temp;Humidity;BMP_temperature;BMP_pressure;BME280_temperature;BME280_humidity;BME280_pressure;Samples;Min_cycle;Max_cycle;Signal;HPM_P1;HPM_P2
2022/12/22 03:26:21;;;;;;;12.45;9.13;;;;;;;9.17;100.00;99343.72;5082729;28;20051;-71
2022/12/22 03:28:48;;;;;;;10.95;8.85;;;;;;;9.37;100.00;99380.41;5094766;28;20048;-71
2022/12/22 03:31:15;;;;;;;12.77;8.75;;;;;;;9.33;100.00;99369.16;5084054;28;20083;-71
2022/12/22 03:33:41;;;;;;;10.43;8.27;;;;;;;9.32;100.00;99350.75;5091975;28;20063;-72
2022/12/22 03:36:09;;;;;;;9.88;7.82;;;;;;;9.39;100.00;99352.13;5084991;28;20070;-75
2022/12/22 03:38:35;;;;;;;10.45;7.82;;;;;;;9.47;100.00;99350.72;5086991;28;20051;-69
2022/12/22 03:41:02;;;;;;;11.43;7.53;;;;;;;9.43;100.00;99343.94;5089546;28;20056;-71
2022/12/22 03:46:32;;;;;;;8.50;6.88;;;;;;;9.52;100.00;99342.53;5086495;28;21125;-69
2022/12/22 03:49:09;;;;;;;8.60;7.05;;;;;;;9.49;100.00;99342.69;5090370;28;20120;-70
2022/12/22 03:51:43;;;;;;;8.60;6.60;;;;;;;9.51;100.00;99340.81;5088302;28;20130;-70
2022/12/22 03:54:13;;;;;;;9.57;7.32;;;;;;;9.57;100.00;99331.69;5087093;28;20048;-71
2022/12/22 03:56:40;;;;;;;10.10;7.07;;;;;;;9.58;100.00;99328.97;5084383;28;20125;-69
2022/12/22 03:59:07;;;;;;;8.32;6.70;;;;;;;9.60;100.00;99334.16;5093130;28;20408;-69
2022/12/22 04:01:38;;;;;;;7.40;6.55;;;;;;;9.49;100.00;99317.13;5079126;28;20052;-70
2022/12/22 04:04:05;;;;;;;8.40;7.30;;;;;;;9.60;100.00;99321.75;5090458;28;20052;-69
2022/12/22 04:06:32;;;;;;;12.38;7.32;;;;;;;9.63;100.00;99323.38;5083594;28;20048;-72
2022/12/22 04:08:58;;;;;;;10.65;6.95;;;;;;;9.59;100.00;99316.59;5072032;28;20849;-68
2022/12/22 04:14:10;;;;;;;7.00;6.30;;;;;;;9.60;100.00;99313.00;5092359;28;20150;-71
2022/12/22 04:16:37;;;;;;;7.88;6.95;;;;;;;9.60;100.00;99307.72;5083576;28;20428;-69
2022/12/22 04:19:05;;;;;;;7.80;6.00;;;;;;;9.63;100.00;99310.16;5090589;28;20044;-71
2022/12/22 04:21:32;;;;;;;8.65;6.75;;;;;;;9.54;100.00;99306.28;5091540;27;20798;-72
2022/12/22 04:24:01;;;;;;;8.25;5.68;;;;;;;9.38;100.00;99264.06;5081703;28;20125;-68
2022/12/22 04:26:27;;;;;;;9.73;5.47;;;;;;;9.56;100.00;99296.47;5092474;28;20041;-68
2022/12/22 04:28:57;;;;;;;6.20;5.20;;;;;;;9.57;100.00;99292.03;5088018;28;20048;-69
2022/12/22 04:31:23;;;;;;;6.10;5.20;;;;;;;9.59;100.00;99293.66;5096390;28;20131;-72
2022/12/22 04:33:50;;;;;;;6.03;4.70;;;;;;;9.61;100.00;99293.53;5086827;27;20051;-69
2022/12/22 04:36:18;;;;;;;7.07;4.78;;;;;;;9.60;100.00;99291.88;5091032;28;20057;-71
2022/12/22 04:38:44;;;;;;;10.07;5.38;;;;;;;9.44;100.00;99260.22;5075505;28;20046;-68
2022/12/22 04:41:11;;;;;;;7.72;4.40;;;;;;;9.56;100.00;99272.69;5087686;28;20054;-71
2022/12/22 04:43:38;;;;;;;6.47;4.68;;;;;;;9.63;100.00;99281.09;5083979;28;20544;-70
2022/12/22 04:46:05;;;;;;;11.45;4.50;;;;;;;9.62;100.00;99284.66;5091351;28;20040;-72
2022/12/22 04:48:32;;;;;;;8.55;4.57;;;;;;;9.61;100.00;99282.97;5084806;27;20063;-69
2022/12/22 04:50:59;;;;;;;6.20;4.05;;;;;;;9.58;100.00;99280.53;5087385;28;20050;-70
2022/12/22 04:53:28;;;;;;;7.30;4.30;;;;;;;9.58;100.00;99278.75;5078392;28;20040;-71
2022/12/22 04:56:01;;;;;;;6.88;3.60;;;;;;;9.61;100.00;99272.38;5087232;28;20058;-69
2022/12/22 04:58:28;;;;;;;8.82;4.15;;;;;;;9.63;100.00;99271.34;5088704;28;20138;-69
2022/12/22 05:00:55;;;;;;;6.55;3.80;;;;;;;9.58;100.00;99273.47;5084221;28;20052;-69
2022/12/22 05:03:22;;;;;;;8.23;3.85;;;;;;;9.66;100.00;99275.63;5084103;28;20048;-69
2022/12/22 05:05:49;;;;;;;7.97;4.00;;;;;;;9.62;100.00;99266.16;5087767;28;20078;-71
2022/12/22 05:08:15;;;;;;;7.10;4.15;;;;;;;9.59;100.00;99261.09;5080719;28;20036;-68
2022/12/22 05:10:42;;;;;;;6.40;3.90;;;;;;;9.52;100.00;99251.81;5092669;28;20044;-69
2022/12/22 05:13:08;;;;;;;6.82;4.03;;;;;;;9.62;100.00;99258.22;5092948;28;20046;-72
2022/12/22 05:15:35;;;;;;;7.88;3.72;;;;;;;9.45;100.00;99235.47;5082671;28;20075;-71
2022/12/22 05:18:03;;;;;;;6.85;3.97;;;;;;;9.42;100.00;99225.13;5080012;28;20047;-73
2022/12/22 05:20:30;;;;;;;7.43;3.78;;;;;;;9.38;100.00;99221.81;5077685;28;20048;-68
2022/12/22 05:22:57;;;;;;;7.55;4.00;;;;;;;9.45;100.00;99219.63;5081768;28;20518;-69
2022/12/22 05:25:24;;;;;;;7.38;4.20;;;;;;;9.50;100.00;99241.34;5080587;28;20052;-71
2022/12/22 05:27:57;;;;;;;7.70;4.00;;;;;;;9.49;100.00;99245.78;5088829;28;20040;-68
2022/12/22 05:30:23;;;;;;;8.88;4.38;;;;;;;9.47;100.00;99242.38;5087008;28;20050;-67
2022/12/22 05:32:52;;;;;;;9.07;4.35;;;;;;;9.45;100.00;99233.69;5078355;28;20526;-69
2022/12/22 05:35:19;;;;;;;5.30;4.38;;;;;;;9.58;100.00;99241.75;5082016;28;20898;-71
2022/12/22 05:37:45;;;;;;;7.50;4.38;;;;;;;9.61;100.00;99238.03;5081124;28;20049;-69
2022/12/22 05:40:13;;;;;;;7.93;4.35;;;;;;;9.58;100.00;99235.59;5085493;28;20040;-70
2022/12/22 05:42:40;;;;;;;9.35;5.70;;;;;;;9.53;100.00;99227.09;5085579;28;20150;-70
2022/12/22 05:45:15;;;;;;;9.25;4.78;;;;;;;9.59;100.00;99232.03;5086885;28;20048;-74
2022/12/22 05:47:48;;;;;;;7.03;4.95;;;;;;;9.56;100.00;99221.63;5093108;28;20047;-69
2022/12/22 05:50:16;;;;;;;9.40;4.88;;;;;;;9.55;100.00;99227.84;5084548;28;20117;-73
2022/12/22 05:52:43;;;;;;;8.05;5.07;;;;;;;9.54;100.00;99224.38;5080372;28;20625;-70
2022/12/22 05:55:11;;;;;;;6.75;5.30;;;;;;;9.33;100.00;99189.53;5082593;28;20544;-76
2022/12/22 05:57:38;;;;;;;8.70;4.75;;;;;;;9.51;100.00;99216.63;5082954;28;20044;-70
2022/12/22 06:00:09;;;;;;;5.47;4.75;;;;;;;9.59;100.00;99208.22;5084616;28;20065;-70
2022/12/22 06:02:36;;;;;;;;;;;;;;;9.63;100.00;99217.66;5086918;28;20047;-69
2022/12/22 06:05:03;;;;;;;6.93;4.05;;;;;;;9.61;100.00;99215.09;5082891;27;19932;-70
2022/12/22 06:07:29;;;;;;;6.18;4.18;;;;;;;9.68;100.00;99195.28;5087227;28;20047;-71
2022/12/22 06:09:56;;;;;;;7.03;3.65;;;;;;;9.53;100.00;99176.88;5086792;28;20059;-72
2022/12/22 06:12:22;;;;;;;4.93;3.03;;;;;;;9.69;100.00;99206.72;5079173;28;20053;-71
2022/12/22 06:14:49;;;;;;;7.53;3.05;;;;;;;9.62;100.00;99200.09;5079142;28;20068;-70
2022/12/22 06:17:18;;;;;;;6.03;3.08;;;;;;;9.45;100.00;99183.47;5076794;28;20141;-70
2022/12/22 06:19:44;;;;;;;5.50;2.50;;;;;;;9.44;100.00;99173.84;5080899;28;20071;-76
2022/12/22 06:22:11;;;;;;;3.55;2.50;;;;;;;9.63;100.00;99188.56;5078123;28;20059;-76
2022/12/22 06:24:38;;;;;;;2.72;2.22;;;;;;;9.62;100.00;99185.06;5086109;28;20122;-72
2022/12/22 06:27:04;;;;;;;3.72;2.28;;;;;;;9.64;100.00;99190.28;5086725;28;20040;-71
2022/12/22 06:29:31;;;;;;;5.80;2.22;;;;;;;9.67;100.00;99192.72;5078643;28;20057;-76
2022/12/22 06:31:57;;;;;;;3.47;2.17;;;;;;;9.60;100.00;99180.88;5081455;28;20117;-70
2022/12/22 06:34:24;;;;;;;4.70;2.08;;;;;;;9.61;100.00;99174.59;5085489;28;20651;-71
2022/12/22 06:36:51;;;;;;;3.00;2.00;;;;;;;9.64;100.00;99177.06;5083568;28;20075;-72
2022/12/22 06:39:17;;;;;;;4.07;2.17;;;;;;;9.75;100.00;99185.19;5089484;28;20431;-70
2022/12/22 06:44:30;;;;;;;4.75;1.70;;;;;;;9.76;100.00;99185.06;5089631;28;20051;-71
2022/12/22 06:46:56;;;;;;;3.47;2.00;;;;;;;9.75;100.00;99177.25;5088026;28;20051;-71
2022/12/22 06:49:23;;;;;;;6.60;2.15;;;;;;;9.59;100.00;99155.38;5087570;28;20048;-74
2022/12/22 06:51:49;;;;;;;3.60;1.75;;;;;;;9.77;100.00;99185.91;5092711;28;20531;-70
2022/12/22 06:54:16;;;;;;;2.15;1.50;;;;;;;9.61;100.00;99161.38;5089149;28;20047;-71
2022/12/22 06:56:51;;;;;;;2.45;1.30;;;;;;;9.82;100.00;99194.41;5092199;28;20056;-70
2022/12/22 06:59:18;;;;;;;2.38;1.50;;;;;;;9.75;100.00;99161.41;5095288;28;20048;-71
2022/12/22 07:01:46;;;;;;;4.30;1.45;;;;;;;9.86;100.00;99177.41;5085610;28;20044;-71
2022/12/22 07:04:18;;;;;;;4.88;1.48;;;;;;;9.89;100.00;99184.31;5088627;28;20062;-70
2022/12/22 07:06:46;;;;;;;2.90;1.33;;;;;;;9.93;100.00;99199.88;5083613;28;20056;-73
2022/12/22 07:09:13;;;;;;;3.28;1.42;;;;;;;9.96;100.00;99191.75;5085857;28;20044;-71
2022/12/22 07:11:39;;;;;;;4.75;1.48;;;;;;;9.90;100.00;99196.59;5084325;28;20095;-70
2022/12/22 07:14:06;;;;;;;5.57;1.73;;;;;;;9.88;100.00;99201.97;5084447;28;20051;-74
2022/12/22 07:16:33;;;;;;;6.40;2.05;;;;;;;9.89;100.00;99206.31;5079333;28;20051;-70
2022/12/22 07:19:00;;;;;;;2.72;1.23;;;;;;;9.91;100.00;99215.00;5080161;28;20127;-70
2022/12/22 07:21:26;;;;;;;3.67;1.27;;;;;;;9.84;100.00;99208.41;5079612;28;20065;-75
2022/12/22 07:23:53;;;;;;;8.98;2.25;;;;;;;9.87;100.00;99210.00;5083501;28;20407;-70
2022/12/22 07:26:19;;;;;;;4.63;1.55;;;;;;;9.89;100.00;99214.25;5084989;28;20475;-71
2022/12/22 07:28:46;;;;;;;4.70;1.30;;;;;;;9.90;100.00;99215.94;5080472;28;20070;-70
2022/12/22 07:31:16;;;;;;;5.03;1.45;;;;;;;10.01;100.00;99220.56;5087221;28;20048;-75
2022/12/22 07:33:42;;;;;;;5.95;1.40;;;;;;;9.99;100.00;99204.78;5089363;28;20070;-69
2022/12/22 07:36:15;;;;;;;5.13;1.38;;;;;;;9.90;100.00;99186.00;5086052;28;20139;-69
2022/12/22 07:38:44;;;;;;;4.18;1.02;;;;;;;10.08;100.00;99225.34;5083055;28;20132;-70
2022/12/22 07:43:59;;;;;;;3.60;1.20;;;;;;;9.92;100.00;99186.75;5084337;28;20050;-70
2022/12/22 07:46:28;;;;;;;4.32;1.05;;;;;;;10.08;100.00;99208.63;5086305;28;20498;-70
2022/12/22 07:51:41;;;;;;;5.68;1.75;;;;;;;10.10;100.00;99212.03;5089765;28;20044;-71
2022/12/22 07:54:09;;;;;;;5.75;1.85;;;;;;;10.10;100.00;99218.16;5082261;28;20079;-71
2022/12/22 07:56:36;;;;;;;2.58;1.25;;;;;;;10.15;100.00;99218.72;5086798;28;20135;-69
2022/12/22 07:59:06;;;;;;;6.07;1.80;;;;;;;10.12;100.00;99216.28;5079606;28;20040;-68
2022/12/22 08:01:33;;;;;;;3.58;1.50;;;;;;;10.17;100.00;99222.13;5079096;28;20044;-71
2022/12/22 08:04:00;;;;;;;6.22;2.20;;;;;;;10.11;100.00;99211.94;5089199;28;20075;-71
2022/12/22 08:06:27;;;;;;;4.53;1.90;;;;;;;10.24;100.00;99224.41;5083551;28;20518;-73
2022/12/22 08:08:54;;;;;;;6.47;2.08;;;;;;;10.19;100.00;99212.34;5079693;28;20123;-70
2022/12/22 08:11:20;;;;;;;4.45;2.00;;;;;;;10.21;100.00;99212.25;5077563;28;20132;-71
2022/12/22 08:13:48;;;;;;;4.90;2.00;;;;;;;10.22;100.00;99221.88;5082835;28;20051;-72
2022/12/22 08:16:16;;;;;;;6.80;2.08;;;;;;;10.02;100.00;99179.94;5073788;28;20058;-70
2022/12/22 08:18:43;;;;;;;3.80;1.90;;;;;;;10.16;100.00;99209.84;5080626;28;20044;-73
2022/12/22 08:21:10;;;;;;;6.78;2.20;;;;;;;10.14;100.00;99203.81;5075793;28;20067;-73
2022/12/22 08:23:36;;;;;;;7.00;1.77;;;;;;;10.15;100.00;99202.00;5073963;28;20040;-69
2022/12/22 08:26:07;;;;;;;5.78;2.15;;;;;;;10.15;100.00;99209.94;5081872;28;20040;-69
2022/12/22 08:28:40;;;;;;;10.27;2.00;;;;;;;10.11;100.00;99213.72;5076372;28;20109;-69
2022/12/22 08:31:07;;;;;;;4.82;1.60;;;;;;;10.04;100.00;99207.16;5069767;28;20049;-72
2022/12/22 08:33:34;;;;;;;6.13;1.70;;;;;;;10.10;100.00;99226.09;5074614;28;20052;-70
2022/12/22 08:36:01;;;;;;;5.80;1.90;;;;;;;10.05;100.00;99203.56;5074769;28;20089;-69
2022/12/22 08:38:33;;;;;;;7.40;1.63;;;;;;;10.05;100.00;99214.13;5080474;28;20058;-68
2022/12/22 08:41:00;;;;;;;5.95;2.00;;;;;;;9.77;100.00;99165.63;5080050;28;20066;-72
2022/12/22 08:43:29;;;;;;;3.33;1.80;;;;;;;9.86;100.00;99190.63;5081516;28;20102;-72
2022/12/22 08:45:56;;;;;;;4.30;1.60;;;;;;;9.86;100.00;99198.56;5074495;28;20092;-71
2022/12/22 08:48:22;;;;;;;4.88;1.75;;;;;;;10.04;100.00;99215.94;5075148;28;20059;-71
2022/12/22 08:50:49;;;;;;;4.18;1.88;;;;;;;10.04;100.00;99215.94;5079431;28;20051;-71
2022/12/22 08:53:15;;;;;;;7.90;1.73;;;;;;;9.95;100.00;99191.84;5073293;28;20043;-72
2022/12/22 08:56:02;;;;;;;7.50;2.03;;;;;;;10.00;100.00;99210.91;5069637;28;20071;-71
2022/12/22 08:58:28;;;;;;;3.95;1.33;;;;;;;10.02;100.00;99215.16;5071088;27;20430;-75
2022/12/22 09:00:55;;;;;;;6.93;1.50;;;;;;;9.79;100.00;99170.81;5068422;28;20062;-72
2022/12/22 09:03:22;;;;;;;7.28;1.92;;;;;;;9.98;100.00;99208.38;5063313;28;20054;-70
2022/12/22 09:05:48;;;;;;;5.93;1.38;;;;;;;10.06;100.00;99221.13;5056745;28;20147;-74
2022/12/22 09:08:15;;;;;;;10.15;1.60;;;;;;;10.03;100.00;99231.88;5063505;28;20048;-73
2022/12/22 09:10:42;;;;;;;4.32;1.20;;;;;;;9.99;100.00;99225.09;5061313;28;20040;-69
2022/12/22 09:13:09;;;;;;;7.70;1.30;;;;;;;10.01;100.00;99237.28;5057382;28;20066;-72
2022/12/22 09:15:36;;;;;;;7.55;1.90;;;;;;;9.99;100.00;99244.44;5060547;28;20048;-70
2022/12/22 09:18:03;;;;;;;9.38;1.70;;;;;;;9.98;100.00;99244.53;5063475;28;20425;-73
2022/12/22 09:20:29;;;;;;;6.35;1.27;;;;;;;9.97;100.00;99246.34;5057055;28;20056;-69
2022/12/22 09:22:57;;;;;;;6.82;1.60;;;;;;;9.77;100.00;99222.94;5056763;28;20139;-70
2022/12/22 09:25:23;;;;;;;11.23;1.60;;;;;;;9.94;100.00;99265.03;5055993;28;20052;-73
2022/12/22 09:27:50;;;;;;;7.53;1.60;;;;;;;9.82;100.00;99240.22;5086446;28;20097;-73
2022/12/22 09:30:17;;;;;;;7.53;1.60;;;;;;;9.94;100.00;99265.03;5078230;28;20044;-71
2022/12/22 09:32:43;;;;;;;10.30;1.80;;;;;;;9.98;100.00;99271.84;5079260;28;20442;-73
2022/12/22 09:35:10;;;;;;;7.03;1.70;;;;;;;10.02;100.00;99278.66;5075969;28;20328;-71
2022/12/22 09:37:36;;;;;;;12.18;1.60;;;;;;;9.99;100.00;99273.53;5068599;28;20755;-72
2022/12/22 09:40:03;;;;;;;10.02;1.95;;;;;;;9.97;100.00;99269.28;5073453;28;20173;-72
2022/12/22 09:42:33;;;;;;;10.82;1.75;;;;;;;9.95;100.00;99285.25;5078512;28;20066;-72
2022/12/22 09:45:00;;;;;;;7.85;1.80;;;;;;;9.84;100.00;99278.00;5085030;28;20048;-71
2022/12/22 09:47:39;;;;;;;6.55;1.77;;;;;;;9.88;100.00;99291.03;5070962;28;20424;-75
2022/12/22 09:50:13;;;;;;;8.07;1.73;;;;;;;9.85;100.00;99297.34;5074894;28;20041;-71
2022/12/22 09:52:46;;;;;;;11.52;2.00;;;;;;;9.84;100.00;99293.00;5077733;28;20135;-71
2022/12/22 09:55:19;;;;;;;8.05;1.80;;;;;;;9.84;100.00;99306.22;5074554;28;20040;-72
2022/12/22 09:57:45;;;;;;;9.63;2.10;;;;;;;9.81;100.00;99309.03;5074075;28;20067;-72
2022/12/22 10:00:15;;;;;;;11.05;1.98;;;;;;;9.80;100.00;99302.06;5072938;28;20047;-72
2022/12/22 10:02:49;;;;;;;10.10;2.47;;;;;;;9.79;100.00;99308.28;5076549;28;20040;-73
2022/12/22 10:06:00;;;;;;;15.02;2.70;;;;;;;9.81;100.00;99314.34;5079111;28;20075;-75
2022/12/22 10:08:31;;;;;;;8.55;2.45;;;;;;;9.77;100.00;99312.81;5061719;28;20669;-71
2022/12/22 10:10:57;;;;;;;11.85;2.78;;;;;;;9.78;100.00;99328.59;5075434;28;20041;-73
2022/12/22 10:13:24;;;;;;;10.15;2.50;;;;;;;9.80;100.00;99326.69;5077564;28;20040;-72
2022/12/22 10:15:52;;;;;;;10.98;2.55;;;;;;;9.73;100.00;99330.69;5076542;28;20044;-71
2022/12/22 10:18:21;;;;;;;12.15;2.53;;;;;;;9.75;100.00;99327.94;5069866;28;20076;-74
2022/12/22 10:21:10;;;;;;;12.45;2.72;;;;;;;9.71;100.00;99321.13;5072561;28;20055;-73
2022/12/22 10:23:42;;;;;;;18.58;2.80;;;;;;;9.79;100.00;99340.00;5068069;28;20051;-73
2022/12/22 10:26:12;;;;;;;10.75;2.20;;;;;;;9.80;100.00;99334.63;5074365;28;20041;-72
2022/12/22 10:29:04;;;;;;;12.55;2.95;;;;;;;9.85;100.00;99339.66;5073078;28;20040;-74
2022/12/22 10:31:33;;;;;;;9.50;2.28;;;;;;;9.84;100.00;99333.50;5071854;28;20048;-72
2022/12/22 10:34:15;;;;;;;8.32;2.15;;;;;;;9.93;100.00;99337.38;5079932;28;20048;-70
2022/12/22 10:36:51;;;;;;;12.80;2.83;;;;;;;10.03;100.00;99341.19;5079213;28;20040;-71
2022/12/22 10:39:24;;;;;;;14.10;2.28;;;;;;;10.06;100.00;99346.28;5081796;28;20048;-74
2022/12/22 10:41:54;;;;;;;12.80;2.70;;;;;;;10.09;100.00;99353.16;5075955;28;20043;-73
2022/12/22 10:44:33;;;;;;;11.93;2.30;;;;;;;10.09;100.00;99346.06;5073140;28;20060;-70
2022/12/22 10:47:12;;;;;;;7.57;2.78;;;;;;;10.06;100.00;99342.78;5071322;28;20049;-71
2022/12/22 10:49:46;;;;;;;9.73;2.65;;;;;;;10.07;100.00;99333.91;5073751;28;20121;-77
2022/12/22 10:52:18;;;;;;;9.32;3.10;;;;;;;10.16;100.00;99346.56;5073795;28;20044;-69
2022/12/22 10:55:14;;;;;;;8.48;2.42;;;;;;;10.18;100.00;99356.13;5070433;28;20052;-71
2022/12/22 10:57:41;;;;;;;11.30;3.42;;;;;;;10.22;100.00;99354.16;5077213;28;20124;-72
2022/12/22 11:00:29;;;;;;;9.07;2.92;;;;;;;10.26;100.00;99358.28;5071800;28;20061;-71
2022/12/22 11:03:00;;;;;;;6.13;2.30;;;;;;;10.25;100.00;99358.38;5069592;28;20513;-70
2022/12/22 11:05:28;;;;;;;8.68;2.83;;;;;;;10.23;100.00;99365.59;5066413;28;20059;-76
2022/12/22 11:07:55;;;;;;;8.68;3.05;;;;;;;10.27;100.00;99372.38;5075840;28;20051;-73
2022/12/22 11:10:43;;;;;;;11.60;2.70;;;;;;;10.31;100.00;99373.91;5075168;28;20086;-70
2022/12/22 11:13:34;;;;;;;11.00;3.15;;;;;;;10.33;100.00;99386.09;5069511;28;20046;-70
2022/12/22 11:16:12;;;;;;;6.85;2.63;;;;;;;10.34;100.00;99381.66;5072567;28;20049;-72
2022/12/22 11:19:07;;;;;;;10.88;2.38;;;;;;;10.39;100.00;99390.16;5073944;28;20048;-69
2022/12/22 11:22:00;;;;;;;7.18;2.47;;;;;;;10.36;100.00;99393.84;5075881;28;20067;-69
2022/12/22 11:24:34;;;;;;;8.63;2.40;;;;;;;10.42;100.00;99405.81;5075816;28;20049;-68
2022/12/22 11:27:18;;;;;;;8.77;2.33;;;;;;;10.49;100.00;99413.31;5078157;28;20052;-72
2022/12/22 11:30:15;;;;;;;7.88;2.35;;;;;;;10.61;100.00;99409.03;5080692;28;20146;-71
2022/12/22 11:33:35;;;;;;;6.90;2.42;;;;;;;10.73;100.00;99418.00;5078514;28;20051;-71
2022/12/22 11:36:12;;;;;;;3.60;2.15;;;;;;;10.79;100.00;99425.56;5042948;28;20420;-69
2022/12/22 11:39:03;;;;;;;9.50;2.63;;;;;;;10.78;100.00;99431.81;5045389;28;20481;-69
2022/12/22 11:42:00;;;;;;;6.28;2.78;;;;;;;10.79;100.00;99437.00;5071142;28;20480;-71
2022/12/22 11:44:46;;;;;;;13.48;3.53;;;;;;;10.74;100.00;99433.78;5085543;28;20089;-68
2022/12/22 11:47:40;;;;;;;5.88;2.22;;;;;;;10.74;100.00;99446.19;5073713;28;20094;-70
2022/12/22 11:50:26;;;;;;;8.60;2.65;;;;;;;10.74;100.00;99456.78;5077890;28;20041;-70
2022/12/22 11:53:34;;;;;;;5.60;2.38;;;;;;;10.71;100.00;99464.91;5078938;28;20475;-69
2022/12/22 11:56:19;;;;;;;6.10;2.30;;;;;;;10.70;100.00;99458.78;5076379;28;20052;-69
2022/12/22 11:58:51;;;;;;;4.72;2.05;;;;;;;10.52;100.00;99434.28;5075612;28;20104;-71
2022/12/22 12:01:36;;;;;;;7.25;2.40;;;;;;;10.72;100.00;99463.94;5081682;28;20079;-69
2022/12/22 12:04:21;;;;;;;5.20;1.98;;;;;;;10.76;100.00;99481.34;5086396;28;20051;-72
2022/12/22 12:06:57;;;;;;;7.57;2.60;;;;;;;10.61;100.00;99461.97;5080683;28;20051;-69
2022/12/22 12:09:29;;;;;;;8.18;3.03;;;;;;;10.71;100.00;99486.94;5075957;28;20056;-71
2022/12/22 12:12:07;;;;;;;7.70;3.03;;;;;;;10.71;100.00;99480.78;5078604;28;20138;-70
2022/12/22 12:15:23;;;;;;;8.55;3.13;;;;;;;10.77;100.00;99489.22;5075784;28;20118;-77
2022/12/22 12:18:13;;;;;;;9.45;2.40;;;;;;;10.75;100.00;99492.91;5049738;28;20131;-71
2022/12/22 12:20:40;;;;;;;;;;;;;;;10.78;100.00;99509.47;5081689;28;20044;-70
2022/12/22 12:23:25;;;;;;;4.32;2.10;;;;;;;10.78;100.00;99512.09;5079070;28;19920;-70
2022/12/22 12:26:00;;;;;;;5.32;1.98;;;;;;;10.74;100.00;99509.72;5082930;28;20128;-73
2022/12/22 12:28:52;;;;;;;8.23;2.10;;;;;;;10.75;100.00;99525.53;5079762;28;20123;-68
2022/12/22 12:31:21;;;;;;;4.07;1.80;;;;;;;10.62;100.00;99497.25;5072109;28;20380;-68
2022/12/22 12:33:57;;;;;;;6.60;2.40;;;;;;;10.65;100.00;99508.50;5080373;28;20040;-71
2022/12/22 12:36:46;;;;;;;5.32;2.60;;;;;;;10.75;100.00;99528.19;5078709;28;20048;-69
2022/12/22 12:39:27;;;;;;;6.38;2.65;;;;;;;10.72;100.00;99538.09;5083821;28;20064;-68
2022/12/22 12:42:12;;;;;;;9.88;3.10;;;;;;;10.71;100.00;99547.84;5082611;28;20048;-67
2022/12/22 12:44:38;;;;;;;5.45;2.50;;;;;;;10.68;100.00;99550.69;5077299;28;20134;-74
2022/12/22 12:47:21;;;;;;;4.63;2.08;;;;;;;10.65;100.00;99545.56;5079691;28;20065;-76
2022/12/22 12:50:24;;;;;;;4.97;2.22;;;;;;;10.65;100.00;99548.22;5082624;28;20523;-69
2022/12/22 12:52:53;;;;;;;5.53;2.20;;;;;;;10.66;100.00;99559.66;5086508;28;20139;-69
2022/12/22 12:55:29;;;;;;;4.75;2.45;;;;;;;10.63;100.00;99568.66;5085883;28;20044;-67
2022/12/22 12:58:00;;;;;;;5.22;2.20;;;;;;;10.60;100.00;99560.88;5082444;28;20055;-67
2022/12/22 13:00:33;;;;;;;3.58;1.70;;;;;;;10.56;100.00;99559.34;5089695;28;20042;-75
2022/12/22 13:03:10;;;;;;;4.95;2.05;;;;;;;10.55;100.00;99561.16;5085280;28;20044;-68
2022/12/22 13:05:59;;;;;;;4.28;1.90;;;;;;;10.57;100.00;99563.72;5085004;28;20122;-71
2022/12/22 13:08:30;;;;;;;4.20;1.83;;;;;;;10.57;100.00;99563.72;5081474;28;20502;-68
2022/12/22 13:10:56;;;;;;;4.50;2.10;;;;;;;10.59;100.00;99585.66;5078394;28;21140;-68
2022/12/22 13:13:23;;;;;;;2.72;1.80;;;;;;;10.57;100.00;99586.69;5087769;28;20445;-67
2022/12/22 13:15:58;;;;;;;5.78;1.70;;;;;;;10.59;100.00;99600.69;5095719;28;20052;-69
2022/12/22 13:18:27;;;;;;;4.88;2.25;;;;;;;10.57;100.00;99600.78;5080913;28;20518;-67
2022/12/22 13:21:16;;;;;;;3.83;1.75;;;;;;;10.55;100.00;99610.59;5074424;28;20083;-68
2022/12/22 13:24:25;;;;;;;9.02;2.40;;;;;;;10.55;100.00;99615.88;5072459;28;20056;-68
2022/12/22 13:27:01;;;;;;;3.63;1.70;;;;;;;10.47;100.00;99619.00;5071237;28;20063;-71
2022/12/22 13:29:41;;;;;;;2.78;1.73;;;;;;;10.42;100.00;99621.06;5071475;28;20056;-72
2022/12/22 13:32:33;;;;;;;3.53;2.17;;;;;;;10.37;100.00;99619.63;5068747;28;20048;-71
2022/12/22 13:35:23;;;;;;;3.35;2.10;;;;;;;10.31;100.00;99633.22;5074578;28;20500;-72
2022/12/22 13:38:00;;;;;;;3.20;2.13;;;;;;;10.22;100.00;99626.69;5065133;28;20404;-69
2022/12/22 13:40:40;;;;;;;3.55;1.90;;;;;;;10.19;100.00;99629.50;5072271;28;20036;-72
2022/12/22 13:43:14;;;;;;;4.50;2.15;;;;;;;10.13;100.00;99632.44;5066042;28;20044;-71
2022/12/22 13:45:53;;;;;;;4.40;2.08;;;;;;;10.13;100.00;99645.69;5067501;28;20058;-70
2022/12/22 13:48:25;;;;;;;3.72;2.53;;;;;;;10.09;100.00;99641.50;5069517;28;20105;-69
2022/12/22 13:50:57;;;;;;;7.78;2.40;;;;;;;10.06;100.00;99641.69;5073451;28;20439;-69
2022/12/22 13:53:36;;;;;;;5.57;2.50;;;;;;;9.98;100.00;99641.25;5074167;28;22364;-68
2022/12/22 13:56:34;;;;;;;3.40;2.30;;;;;;;9.99;100.00;99646.47;5073729;28;20040;-70
2022/12/22 13:59:01;;;;;;;5.35;2.55;;;;;;;9.89;100.00;99650.56;5075112;28;20161;-70
2022/12/22 14:01:29;;;;;;;3.67;2.35;;;;;;;9.86;100.00;99650.75;5071881;28;20485;-71
2022/12/22 14:04:06;;;;;;;3.20;2.10;;;;;;;9.73;100.00;99640.00;5069644;28;20044;-70
2022/12/22 14:06:38;;;;;;;4.28;2.38;;;;;;;9.75;100.00;99651.34;5073534;28;20055;-70
2022/12/22 14:09:16;;;;;;;4.75;2.53;;;;;;;9.74;100.00;99652.28;5073574;28;20418;-71
2022/12/22 14:11:47;;;;;;;5.72;2.85;;;;;;;9.71;100.00;99654.22;5067418;28;20040;-70
2022/12/22 14:14:25;;;;;;;4.88;2.55;;;;;;;9.53;100.00;99626.16;5072632;28;20561;-72
2022/12/22 14:16:55;;;;;;;6.53;3.22;;;;;;;9.62;100.00;99642.34;5065075;28;20055;-71
2022/12/22 14:19:23;;;;;;;3.22;2.50;;;;;;;9.68;100.00;99659.69;5074416;28;20055;-71
2022/12/22 14:22:01;;;;;;;5.82;2.50;;;;;;;9.65;100.00;99659.84;5081758;28;20051;-73
2022/12/22 14:24:32;;;;;;;5.07;2.65;;;;;;;9.68;100.00;99665.81;5073733;28;20098;-72
2022/12/22 14:27:05;;;;;;;6.88;3.15;;;;;;;9.67;100.00;99671.19;5076100;28;20473;-69
2022/12/22 14:29:34;;;;;;;8.82;3.10;;;;;;;9.71;100.00;99670.09;5075519;28;20056;-70
2022/12/22 14:32:01;;;;;;;4.72;2.53;;;;;;;9.85;100.00;99683.41;5077457;28;20063;-69
2022/12/22 14:34:31;;;;;;;8.57;2.58;;;;;;;9.82;100.00;99671.19;5074113;28;20052;-69
2022/12/22 14:36:59;;;;;;;5.75;2.72;;;;;;;9.85;100.00;99667.53;5073408;28;20138;-69
2022/12/22 14:39:30;;;;;;;5.60;2.60;;;;;;;9.74;100.00;99649.63;5078002;28;20040;-71
2022/12/22 14:42:11;;;;;;;6.22;1.95;;;;;;;9.97;100.00;99677.44;5076468;28;20055;-69
2022/12/22 14:44:45;;;;;;;3.03;1.90;;;;;;;9.88;100.00;99680.59;5085469;28;21132;-70
2022/12/22 14:47:14;;;;;;;4.70;1.60;;;;;;;9.90;100.00;99691.09;5077861;28;20127;-72
2022/12/22 14:50:15;;;;;;;6.82;2.65;;;;;;;9.89;100.00;99690.25;5073923;28;20056;-72
2022/12/22 14:52:58;;;;;;;4.45;1.90;;;;;;;9.80;100.00;99693.38;5073158;28;20068;-70
2022/12/22 14:55:27;;;;;;;3.38;1.35;;;;;;;9.78;100.00;99705.81;5079039;28;20506;-72
2022/12/22 14:58:01;;;;;;;2.10;1.52;;;;;;;9.73;100.00;99699.94;5080802;28;20066;-70
2022/12/22 15:00:41;;;;;;;3.22;1.77;;;;;;;9.70;100.00;99705.41;5079646;28;20499;-73
2022/12/22 15:03:34;;;;;;;3.05;1.20;;;;;;;9.67;100.00;99705.56;5077217;28;20514;-71
2022/12/22 15:06:30;;;;;;;2.15;1.40;;;;;;;9.65;100.00;99704.78;5081077;28;20040;-71
2022/12/22 15:09:03;;;;;;;5.45;2.08;;;;;;;9.58;100.00;99712.22;5075480;28;20036;-70
2022/12/22 15:11:32;;;;;;;2.63;1.20;;;;;;;9.55;100.00;99707.09;5077178;28;20676;-72
2022/12/22 15:13:59;;;;;;;1.67;1.33;;;;;;;9.54;100.00;99709.81;5074992;28;20043;-70
2022/12/22 15:16:26;;;;;;;2.08;0.70;;;;;;;9.49;100.00;99696.81;5075026;28;20136;-70
2022/12/22 15:18:53;;;;;;;1.30;1.00;;;;;;;9.48;100.00;99703.91;5081404;28;20040;-74
2022/12/22 15:21:19;;;;;;;1.73;0.85;;;;;;;9.56;100.00;99714.06;5077697;28;20082;-74
2022/12/22 15:23:46;;;;;;;1.77;0.90;;;;;;;9.49;100.00;99710.91;5083335;28;20056;-71
2022/12/22 15:26:13;;;;;;;1.23;0.82;;;;;;;9.39;100.00;99687.69;5075320;28;20048;-72
2022/12/22 15:28:40;;;;;;;1.60;0.90;;;;;;;9.41;100.00;99702.53;5076724;28;20053;-73
2022/12/22 15:31:15;;;;;;;1.60;1.00;;;;;;;9.43;100.00;99713.88;5077629;28;20041;-73
2022/12/22 15:33:43;;;;;;;1.17;1.08;;;;;;;9.40;100.00;99714.03;5085244;28;20499;-73